sensor_id;sensor_type;location;lat;lon;timestamp;P1;durP1;ratioP1;P2;durP2;ratioP2
12832;SDS011;6483;51.310;4.462;2022-07-17T00:01:15;9.82;;;1.85;;
12832;SDS011;6483;51.310;4.462;2022-07-17T00:03:41;4.03;;;1.80;;
12832;SDS011;6483;51.310;4.462;2022-07-17T00:06:07;4.53;;;1.83;;
12832;SDS011;6483;51.310;4.462;2022-07-17T00:08:36;2.58;;;2.10;;
12832;SDS011;6483;51.310;4.462;2022-07-17T00:11:05;4.47;;;1.77;;
12832;SDS011;6483;51.310;4.462;2022-07-17T00:13:31;4.65;;;1.70;;
12832;SDS011;6483;51.310;4.462;2022-07-17T00:15:57;3.05;;;1.85;;
12832;SDS011;6483;51.310;4.462;2022-07-17T00:18:23;5.72;;;2.10;;
12832;SDS011;6483;51.310;4.462;2022-07-17T00:20:49;3.20;;;1.77;;
12832;SDS011;6483;51.310;4.462;2022-07-17T00:23:16;3.85;;;2.10;;
12832;SDS011;6483;51.310;4.462;2022-07-17T00:25:42;2.58;;;1.67;;
12832;SDS011;6483;51.310;4.462;2022-07-17T00:28:11;2.95;;;2.00;;
12832;SDS011;6483;51.310;4.462;2022-07-17T00:30:38;2.45;;;1.73;;
12832;SDS011;6483;51.310;4.462;2022-07-17T00:33:06;5.93;;;2.15;;
12832;SDS011;6483;51.310;4.462;2022-07-17T00:35:36;4.30;;;1.90;;
12832;SDS011;6483;51.310;4.462;2022-07-17T00:38:05;2.65;;;1.90;;
12832;SDS011;6483;51.310;4.462;2022-07-17T00:40:31;4.90;;;2.00;;
12832;SDS011;6483;51.310;4.462;2022-07-17T00:42:57;4.40;;;2.10;;
12832;SDS011;6483;51.310;4.462;2022-07-17T00:45:26;3.78;;;2.10;;
12832;SDS011;6483;51.310;4.462;2022-07-17T00:47:54;5.80;;;2.17;;
12832;SDS011;6483;51.310;4.462;2022-07-17T00:50:24;3.20;;;2.08;;
12832;SDS011;6483;51.310;4.462;2022-07-17T00:52:53;3.17;;;2.08;;
12832;SDS011;6483;51.310;4.462;2022-07-17T00:55:22;2.97;;;1.70;;
12832;SDS011;6483;51.310;4.462;2022-07-17T00:57:49;4.45;;;2.10;;
12832;SDS011;6483;51.310;4.462;2022-07-17T01:00:16;4.97;;;2.10;;
12832;SDS011;6483;51.310;4.462;2022-07-17T01:02:46;3.95;;;2.70;;
12832;SDS011;6483;51.310;4.462;2022-07-17T01:05:13;5.82;;;2.20;;
12832;SDS011;6483;51.310;4.462;2022-07-17T01:07:39;3.22;;;2.08;;
12832;SDS011;6483;51.310;4.462;2022-07-17T01:10:09;4.63;;;2.20;;
12832;SDS011;6483;51.310;4.462;2022-07-17T01:12:35;2.50;;;2.03;;
12832;SDS011;6483;51.310;4.462;2022-07-17T01:15:03;2.80;;;2.28;;
12832;SDS011;6483;51.310;4.462;2022-07-17T01:17:36;7.07;;;2.50;;
12832;SDS011;6483;51.310;4.462;2022-07-17T01:20:06;6.60;;;2.80;;
12832;SDS011;6483;51.310;4.462;2022-07-17T01:22:40;4.93;;;2.67;;
12832;SDS011;6483;51.310;4.462;2022-07-17T01:25:23;4.53;;;2.53;;
12832;SDS011;6483;51.310;4.462;2022-07-17T01:27:49;3.42;;;2.35;;
12832;SDS011;6483;51.310;4.462;2022-07-17T01:30:20;5.00;;;2.55;;
12832;SDS011;6483;51.310;4.462;2022-07-17T01:32:46;5.68;;;2.03;;
12832;SDS011;6483;51.310;4.462;2022-07-17T01:35:12;4.07;;;2.33;;
12832;SDS011;6483;51.310;4.462;2022-07-17T01:37:42;2.40;;;2.10;;
12832;SDS011;6483;51.310;4.462;2022-07-17T01:40:09;4.03;;;2.40;;
12832;SDS011;6483;51.310;4.462;2022-07-17T01:42:39;3.80;;;2.25;;
12832;SDS011;6483;51.310;4.462;2022-07-17T01:45:10;4.97;;;2.80;;
12832;SDS011;6483;51.310;4.462;2022-07-17T01:47:36;3.63;;;2.80;;
12832;SDS011;6483;51.310;4.462;2022-07-17T01:50:04;5.05;;;2.80;;
12832;SDS011;6483;51.310;4.462;2022-07-17T01:52:34;6.05;;;2.90;;
12832;SDS011;6483;51.310;4.462;2022-07-17T01:55:00;6.88;;;3.38;;
12832;SDS011;6483;51.310;4.462;2022-07-17T01:57:29;4.45;;;2.90;;
12832;SDS011;6483;51.310;4.462;2022-07-17T01:59:55;8.15;;;4.00;;
12832;SDS011;6483;51.310;4.462;2022-07-17T02:02:21;8.57;;;2.90;;
12832;SDS011;6483;51.310;4.462;2022-07-17T02:04:47;4.65;;;2.75;;
12832;SDS011;6483;51.310;4.462;2022-07-17T02:07:13;5.20;;;3.13;;
12832;SDS011;6483;51.310;4.462;2022-07-17T02:09:39;8.43;;;3.35;;
12832;SDS011;6483;51.310;4.462;2022-07-17T02:12:08;7.93;;;2.88;;
12832;SDS011;6483;51.310;4.462;2022-07-17T02:14:37;4.15;;;3.00;;
12832;SDS011;6483;51.310;4.462;2022-07-17T02:17:06;4.85;;;2.97;;
12832;SDS011;6483;51.310;4.462;2022-07-17T02:19:34;3.78;;;2.92;;
12832;SDS011;6483;51.310;4.462;2022-07-17T02:22:02;5.03;;;3.00;;
12832;SDS011;6483;51.310;4.462;2022-07-17T02:24:30;4.90;;;3.15;;
12832;SDS011;6483;51.310;4.462;2022-07-17T02:27:00;4.60;;;3.10;;
12832;SDS011;6483;51.310;4.462;2022-07-17T02:29:26;4.22;;;2.83;;
12832;SDS011;6483;51.310;4.462;2022-07-17T02:31:52;4.47;;;2.78;;
12832;SDS011;6483;51.310;4.462;2022-07-17T02:34:18;8.15;;;3.13;;
12832;SDS011;6483;51.310;4.462;2022-07-17T02:36:44;6.50;;;3.55;;
12832;SDS011;6483;51.310;4.462;2022-07-17T02:39:10;7.53;;;3.38;;
12832;SDS011;6483;51.310;4.462;2022-07-17T02:41:36;7.57;;;3.17;;
12832;SDS011;6483;51.310;4.462;2022-07-17T02:44:02;5.47;;;2.63;;
12832;SDS011;6483;51.310;4.462;2022-07-17T02:46:28;4.43;;;3.08;;
12832;SDS011;6483;51.310;4.462;2022-07-17T02:48:58;4.22;;;2.90;;
12832;SDS011;6483;51.310;4.462;2022-07-17T02:51:24;5.57;;;3.30;;
12832;SDS011;6483;51.310;4.462;2022-07-17T02:53:50;7.90;;;3.28;;
12832;SDS011;6483;51.310;4.462;2022-07-17T02:56:19;4.18;;;2.97;;
12832;SDS011;6483;51.310;4.462;2022-07-17T02:58:45;4.95;;;2.97;;
12832;SDS011;6483;51.310;4.462;2022-07-17T03:01:14;4.20;;;2.65;;
12832;SDS011;6483;51.310;4.462;2022-07-17T03:03:40;3.47;;;2.70;;
12832;SDS011;6483;51.310;4.462;2022-07-17T03:06:07;8.10;;;3.55;;
12832;SDS011;6483;51.310;4.462;2022-07-17T03:08:33;3.92;;;3.08;;
12832;SDS011;6483;51.310;4.462;2022-07-17T03:10:59;9.38;;;2.95;;
12832;SDS011;6483;51.310;4.462;2022-07-17T03:13:25;6.28;;;3.10;;
12832;SDS011;6483;51.310;4.462;2022-07-17T03:15:53;6.15;;;3.70;;
12832;SDS011;6483;51.310;4.462;2022-07-17T03:18:22;4.88;;;3.08;;
12832;SDS011;6483;51.310;4.462;2022-07-17T03:20:48;3.83;;;2.80;;
12832;SDS011;6483;51.310;4.462;2022-07-17T03:23:18;7.88;;;3.10;;
12832;SDS011;6483;51.310;4.462;2022-07-17T03:25:47;8.13;;;3.37;;
12832;SDS011;6483;51.310;4.462;2022-07-17T03:28:13;4.70;;;3.17;;
12832;SDS011;6483;51.310;4.462;2022-07-17T03:30:39;8.63;;;2.97;;
12832;SDS011;6483;51.310;4.462;2022-07-17T03:33:05;5.88;;;3.70;;
12832;SDS011;6483;51.310;4.462;2022-07-17T03:35:34;8.88;;;2.65;;
12832;SDS011;6483;51.310;4.462;2022-07-17T03:38:03;4.05;;;2.97;;
12832;SDS011;6483;51.310;4.462;2022-07-17T03:40:32;6.65;;;2.92;;
12832;SDS011;6483;51.310;4.462;2022-07-17T03:42:58;4.10;;;2.53;;
12832;SDS011;6483;51.310;4.462;2022-07-17T03:45:26;3.40;;;3.10;;
12832;SDS011;6483;51.310;4.462;2022-07-17T03:47:52;3.73;;;3.00;;
12832;SDS011;6483;51.310;4.462;2022-07-17T03:50:18;4.07;;;2.80;;
12832;SDS011;6483;51.310;4.462;2022-07-17T03:52:44;4.83;;;2.87;;
12832;SDS011;6483;51.310;4.462;2022-07-17T03:55:15;4.88;;;3.53;;
12832;SDS011;6483;51.310;4.462;2022-07-17T03:57:41;4.73;;;2.83;;
12832;SDS011;6483;51.310;4.462;2022-07-17T04:00:09;4.03;;;2.73;;
12832;SDS011;6483;51.310;4.462;2022-07-17T04:02:35;4.70;;;2.72;;
12832;SDS011;6483;51.310;4.462;2022-07-17T04:05:01;5.40;;;3.00;;
12832;SDS011;6483;51.310;4.462;2022-07-17T04:07:27;7.25;;;3.20;;
12832;SDS011;6483;51.310;4.462;2022-07-17T04:09:59;4.38;;;2.97;;
12832;SDS011;6483;51.310;4.462;2022-07-17T04:12:26;10.40;;;2.75;;
12832;SDS011;6483;51.310;4.462;2022-07-17T04:14:55;4.97;;;2.60;;
12832;SDS011;6483;51.310;4.462;2022-07-17T04:17:21;3.55;;;3.17;;
12832;SDS011;6483;51.310;4.462;2022-07-17T04:19:50;4.17;;;2.73;;
12832;SDS011;6483;51.310;4.462;2022-07-17T04:22:19;3.93;;;3.37;;
12832;SDS011;6483;51.310;4.462;2022-07-17T04:24:45;4.45;;;2.80;;
12832;SDS011;6483;51.310;4.462;2022-07-17T04:27:11;5.55;;;3.10;;
12832;SDS011;6483;51.310;4.462;2022-07-17T04:29:37;4.05;;;2.97;;
12832;SDS011;6483;51.310;4.462;2022-07-17T04:32:09;5.68;;;3.60;;
12832;SDS011;6483;51.310;4.462;2022-07-17T04:34:38;5.75;;;3.25;;
12832;SDS011;6483;51.310;4.462;2022-07-17T04:37:04;6.33;;;2.80;;
12832;SDS011;6483;51.310;4.462;2022-07-17T04:39:31;3.77;;;3.37;;
12832;SDS011;6483;51.310;4.462;2022-07-17T04:41:57;3.85;;;2.53;;
12832;SDS011;6483;51.310;4.462;2022-07-17T04:44:23;5.03;;;3.33;;
12832;SDS011;6483;51.310;4.462;2022-07-17T04:46:50;4.90;;;3.10;;
12832;SDS011;6483;51.310;4.462;2022-07-17T04:49:19;5.40;;;3.00;;
12832;SDS011;6483;51.310;4.462;2022-07-17T04:51:48;6.43;;;3.40;;
12832;SDS011;6483;51.310;4.462;2022-07-17T04:54:14;7.03;;;3.33;;
12832;SDS011;6483;51.310;4.462;2022-07-17T04:56:40;4.07;;;3.33;;
12832;SDS011;6483;51.310;4.462;2022-07-17T04:59:06;6.23;;;3.13;;
12832;SDS011;6483;51.310;4.462;2022-07-17T05:01:32;5.07;;;3.10;;
12832;SDS011;6483;51.310;4.462;2022-07-17T05:03:59;6.18;;;2.90;;
12832;SDS011;6483;51.310;4.462;2022-07-17T05:06:25;4.13;;;2.67;;
12832;SDS011;6483;51.310;4.462;2022-07-17T05:08:51;2.97;;;2.67;;
12832;SDS011;6483;51.310;4.462;2022-07-17T05:11:18;5.97;;;3.13;;
12832;SDS011;6483;51.310;4.462;2022-07-17T05:13:53;4.88;;;3.15;;
12832;SDS011;6483;51.310;4.462;2022-07-17T05:16:19;3.58;;;2.67;;
12832;SDS011;6483;51.310;4.462;2022-07-17T05:18:51;3.75;;;3.30;;
12832;SDS011;6483;51.310;4.462;2022-07-17T05:21:17;4.97;;;3.03;;
12832;SDS011;6483;51.310;4.462;2022-07-17T05:23:46;5.30;;;3.28;;
12832;SDS011;6483;51.310;4.462;2022-07-17T05:26:15;6.95;;;3.67;;
12832;SDS011;6483;51.310;4.462;2022-07-17T05:28:41;6.60;;;3.25;;
12832;SDS011;6483;51.310;4.462;2022-07-17T05:31:07;6.60;;;3.40;;
12832;SDS011;6483;51.310;4.462;2022-07-17T05:33:33;5.80;;;3.10;;
12832;SDS011;6483;51.310;4.462;2022-07-17T05:35:59;4.88;;;3.00;;
12832;SDS011;6483;51.310;4.462;2022-07-17T05:38:25;3.47;;;2.78;;
12832;SDS011;6483;51.310;4.462;2022-07-17T05:40:51;4.90;;;2.95;;
12832;SDS011;6483;51.310;4.462;2022-07-17T05:43:20;3.72;;;2.45;;
12832;SDS011;6483;51.310;4.462;2022-07-17T05:45:46;4.32;;;2.78;;
12832;SDS011;6483;51.310;4.462;2022-07-17T05:48:15;5.00;;;3.15;;
12832;SDS011;6483;51.310;4.462;2022-07-17T05:50:44;4.53;;;2.95;;
12832;SDS011;6483;51.310;4.462;2022-07-17T05:53:13;3.47;;;2.70;;
12832;SDS011;6483;51.310;4.462;2022-07-17T05:55:40;5.50;;;2.92;;
12832;SDS011;6483;51.310;4.462;2022-07-17T05:58:08;3.65;;;2.60;;
12832;SDS011;6483;51.310;4.462;2022-07-17T06:00:36;5.43;;;3.03;;
12832;SDS011;6483;51.310;4.462;2022-07-17T06:03:02;5.90;;;3.55;;
12832;SDS011;6483;51.310;4.462;2022-07-17T06:05:32;6.75;;;3.00;;
12832;SDS011;6483;51.310;4.462;2022-07-17T06:07:58;5.07;;;2.88;;
12832;SDS011;6483;51.310;4.462;2022-07-17T06:10:28;6.25;;;2.88;;
12832;SDS011;6483;51.310;4.462;2022-07-17T06:12:56;4.75;;;2.50;;
12832;SDS011;6483;51.310;4.462;2022-07-17T06:15:22;3.60;;;2.53;;
12832;SDS011;6483;51.310;4.462;2022-07-17T06:17:48;7.00;;;2.85;;
12832;SDS011;6483;51.310;4.462;2022-07-17T06:20:15;6.55;;;2.50;;
12832;SDS011;6483;51.310;4.462;2022-07-17T06:22:42;5.60;;;2.42;;
12832;SDS011;6483;51.310;4.462;2022-07-17T06:25:09;5.05;;;2.17;;
12832;SDS011;6483;51.310;4.462;2022-07-17T06:27:35;4.45;;;2.25;;
12832;SDS011;6483;51.310;4.462;2022-07-17T06:30:01;4.75;;;2.10;;
12832;SDS011;6483;51.310;4.462;2022-07-17T06:32:27;6.05;;;1.83;;
12832;SDS011;6483;51.310;4.462;2022-07-17T06:34:55;3.17;;;1.77;;
12832;SDS011;6483;51.310;4.462;2022-07-17T06:37:21;3.22;;;1.90;;
12832;SDS011;6483;51.310;4.462;2022-07-17T06:39:47;8.32;;;2.17;;
12832;SDS011;6483;51.310;4.462;2022-07-17T06:42:13;6.88;;;1.60;;
12832;SDS011;6483;51.310;4.462;2022-07-17T06:44:38;5.75;;;2.03;;
12832;SDS011;6483;51.310;4.462;2022-07-17T06:47:04;6.13;;;2.53;;
12832;SDS011;6483;51.310;4.462;2022-07-17T06:49:33;2.83;;;1.60;;
12832;SDS011;6483;51.310;4.462;2022-07-17T06:51:59;4.03;;;1.80;;
12832;SDS011;6483;51.310;4.462;2022-07-17T06:54:28;4.22;;;1.60;;
12832;SDS011;6483;51.310;4.462;2022-07-17T06:56:53;1.98;;;1.10;;
12832;SDS011;6483;51.310;4.462;2022-07-17T06:59:19;5.85;;;1.65;;
12832;SDS011;6483;51.310;4.462;2022-07-17T07:01:46;5.93;;;1.40;;
12832;SDS011;6483;51.310;4.462;2022-07-17T07:04:15;3.30;;;1.77;;
12832;SDS011;6483;51.310;4.462;2022-07-17T07:06:41;5.88;;;1.60;;
12832;SDS011;6483;51.310;4.462;2022-07-17T07:09:12;2.60;;;1.25;;
12832;SDS011;6483;51.310;4.462;2022-07-17T07:11:41;5.50;;;1.17;;
12832;SDS011;6483;51.310;4.462;2022-07-17T07:14:07;2.78;;;1.15;;
12832;SDS011;6483;51.310;4.462;2022-07-17T07:16:33;3.00;;;1.55;;
12832;SDS011;6483;51.310;4.462;2022-07-17T07:18:59;7.18;;;2.28;;
12832;SDS011;6483;51.310;4.462;2022-07-17T07:21:26;5.63;;;1.45;;
12832;SDS011;6483;51.310;4.462;2022-07-17T07:23:52;4.10;;;1.35;;
12832;SDS011;6483;51.310;4.462;2022-07-17T07:26:22;4.63;;;1.40;;
12832;SDS011;6483;51.310;4.462;2022-07-17T07:28:53;4.07;;;1.10;;
12832;SDS011;6483;51.310;4.462;2022-07-17T07:31:19;2.80;;;1.35;;
12832;SDS011;6483;51.310;4.462;2022-07-17T07:33:45;5.30;;;1.38;;
12832;SDS011;6483;51.310;4.462;2022-07-17T07:36:14;3.75;;;1.40;;
12832;SDS011;6483;51.310;4.462;2022-07-17T07:38:46;3.95;;;0.90;;
12832;SDS011;6483;51.310;4.462;2022-07-17T07:41:12;3.70;;;1.15;;
12832;SDS011;6483;51.310;4.462;2022-07-17T07:43:38;4.20;;;1.20;;
12832;SDS011;6483;51.310;4.462;2022-07-17T07:46:04;4.90;;;1.65;;
12832;SDS011;6483;51.310;4.462;2022-07-17T07:48:30;5.28;;;1.50;;
12832;SDS011;6483;51.310;4.462;2022-07-17T07:50:55;2.30;;;1.27;;
12832;SDS011;6483;51.310;4.462;2022-07-17T07:53:22;4.38;;;0.98;;
12832;SDS011;6483;51.310;4.462;2022-07-17T07:55:53;2.60;;;0.82;;
12832;SDS011;6483;51.310;4.462;2022-07-17T07:58:19;1.70;;;1.25;;
12832;SDS011;6483;51.310;4.462;2022-07-17T08:00:47;3.08;;;1.10;;
12832;SDS011;6483;51.310;4.462;2022-07-17T08:03:13;3.25;;;1.23;;
12832;SDS011;6483;51.310;4.462;2022-07-17T08:05:42;2.38;;;1.02;;
12832;SDS011;6483;51.310;4.462;2022-07-17T08:08:08;1.63;;;0.82;;
12832;SDS011;6483;51.310;4.462;2022-07-17T08:10:34;4.97;;;1.08;;
12832;SDS011;6483;51.310;4.462;2022-07-17T08:13:03;3.50;;;1.13;;
12832;SDS011;6483;51.310;4.462;2022-07-17T08:15:29;3.72;;;1.00;;
12832;SDS011;6483;51.310;4.462;2022-07-17T08:17:58;2.40;;;0.77;;
12832;SDS011;6483;51.310;4.462;2022-07-17T08:20:25;3.30;;;0.90;;
12832;SDS011;6483;51.310;4.462;2022-07-17T08:22:51;2.88;;;0.95;;
12832;SDS011;6483;51.310;4.462;2022-07-17T08:25:17;5.47;;;0.90;;
12832;SDS011;6483;51.310;4.462;2022-07-17T08:27:43;4.70;;;1.17;;
12832;SDS011;6483;51.310;4.462;2022-07-17T08:30:10;2.60;;;1.00;;
12832;SDS011;6483;51.310;4.462;2022-07-17T08:32:37;3.20;;;0.90;;
12832;SDS011;6483;51.310;4.462;2022-07-17T08:35:03;2.65;;;0.95;;
12832;SDS011;6483;51.310;4.462;2022-07-17T08:37:45;1.17;;;1.00;;
12832;SDS011;6483;51.310;4.462;2022-07-17T08:40:15;4.43;;;1.20;;
12832;SDS011;6483;51.310;4.462;2022-07-17T08:42:41;2.28;;;0.90;;
12832;SDS011;6483;51.310;4.462;2022-07-17T08:45:11;2.45;;;0.95;;
12832;SDS011;6483;51.310;4.462;2022-07-17T08:47:37;5.72;;;1.02;;
12832;SDS011;6483;51.310;4.462;2022-07-17T08:50:10;2.55;;;0.90;;
12832;SDS011;6483;51.310;4.462;2022-07-17T08:52:40;2.25;;;0.88;;
12832;SDS011;6483;51.310;4.462;2022-07-17T08:55:10;2.13;;;0.85;;
12832;SDS011;6483;51.310;4.462;2022-07-17T08:57:41;2.00;;;0.70;;
12832;SDS011;6483;51.310;4.462;2022-07-17T09:00:12;2.55;;;0.98;;
12832;SDS011;6483;51.310;4.462;2022-07-17T09:02:39;2.22;;;1.10;;
12832;SDS011;6483;51.310;4.462;2022-07-17T09:05:07;2.30;;;1.40;;
12832;SDS011;6483;51.310;4.462;2022-07-17T09:07:33;2.95;;;1.10;;
12832;SDS011;6483;51.310;4.462;2022-07-17T09:09:59;2.88;;;0.98;;
12832;SDS011;6483;51.310;4.462;2022-07-17T09:12:27;2.38;;;1.08;;
12832;SDS011;6483;51.310;4.462;2022-07-17T09:14:59;1.48;;;0.82;;
12832;SDS011;6483;51.310;4.462;2022-07-17T09:17:25;3.40;;;1.48;;
12832;SDS011;6483;51.310;4.462;2022-07-17T09:19:53;1.35;;;1.00;;
12832;SDS011;6483;51.310;4.462;2022-07-17T09:22:23;2.20;;;1.23;;
12832;SDS011;6483;51.310;4.462;2022-07-17T09:24:56;1.52;;;1.20;;
12832;SDS011;6483;51.310;4.462;2022-07-17T09:27:32;4.35;;;1.38;;
12832;SDS011;6483;51.310;4.462;2022-07-17T09:30:00;1.77;;;1.23;;
12832;SDS011;6483;51.310;4.462;2022-07-17T09:32:28;3.30;;;1.50;;
12832;SDS011;6483;51.310;4.462;2022-07-17T09:34:55;2.92;;;1.10;;
12832;SDS011;6483;51.310;4.462;2022-07-17T09:37:22;1.40;;;0.90;;
12832;SDS011;6483;51.310;4.462;2022-07-17T09:39:51;2.00;;;1.27;;
12832;SDS011;6483;51.310;4.462;2022-07-17T09:42:29;2.75;;;1.48;;
12832;SDS011;6483;51.310;4.462;2022-07-17T09:45:00;4.25;;;1.40;;
12832;SDS011;6483;51.310;4.462;2022-07-17T09:47:27;1.75;;;1.30;;
12832;SDS011;6483;51.310;4.462;2022-07-17T09:49:54;2.90;;;1.40;;
12832;SDS011;6483;51.310;4.462;2022-07-17T09:52:24;3.30;;;1.60;;
12832;SDS011;6483;51.310;4.462;2022-07-17T09:54:51;2.65;;;1.40;;
12832;SDS011;6483;51.310;4.462;2022-07-17T09:57:18;2.80;;;1.50;;
12832;SDS011;6483;51.310;4.462;2022-07-17T09:59:45;2.85;;;1.40;;
12832;SDS011;6483;51.310;4.462;2022-07-17T10:02:12;5.47;;;1.85;;
12832;SDS011;6483;51.310;4.462;2022-07-17T10:04:39;2.92;;;1.60;;
12832;SDS011;6483;51.310;4.462;2022-07-17T10:07:06;3.88;;;1.60;;
12832;SDS011;6483;51.310;4.462;2022-07-17T10:09:33;2.33;;;1.35;;
12832;SDS011;6483;51.310;4.462;2022-07-17T10:12:00;2.80;;;1.77;;
12832;SDS011;6483;51.310;4.462;2022-07-17T10:14:29;2.40;;;1.50;;
12832;SDS011;6483;51.310;4.462;2022-07-17T10:17:05;2.22;;;1.50;;
12832;SDS011;6483;51.310;4.462;2022-07-17T10:19:43;2.95;;;1.38;;
12832;SDS011;6483;51.310;4.462;2022-07-17T10:22:09;2.97;;;1.40;;
12832;SDS011;6483;51.310;4.462;2022-07-17T10:27:36;4.70;;;1.63;;
12832;SDS011;6483;51.310;4.462;2022-07-17T10:32:55;2.22;;;1.50;;
12832;SDS011;6483;51.310;4.462;2022-07-17T10:35:25;2.80;;;1.20;;
12832;SDS011;6483;51.310;4.462;2022-07-17T10:37:52;4.47;;;1.70;;
12832;SDS011;6483;51.310;4.462;2022-07-17T10:40:19;2.55;;;1.58;;
12832;SDS011;6483;51.310;4.462;2022-07-17T10:48:01;2.95;;;1.60;;
12832;SDS011;6483;51.310;4.462;2022-07-17T10:50:35;1.52;;;1.42;;
12832;SDS011;6483;51.310;4.462;2022-07-17T10:53:05;1.95;;;1.38;;
12832;SDS011;6483;51.310;4.462;2022-07-17T10:55:32;2.53;;;1.67;;
12832;SDS011;6483;51.310;4.462;2022-07-17T10:58:02;2.78;;;1.65;;
12832;SDS011;6483;51.310;4.462;2022-07-17T11:00:28;2.80;;;1.60;;
12832;SDS011;6483;51.310;4.462;2022-07-17T11:02:54;3.25;;;1.63;;
12832;SDS011;6483;51.310;4.462;2022-07-17T11:05:21;2.13;;;1.58;;
12832;SDS011;6483;51.310;4.462;2022-07-17T11:07:57;6.53;;;1.77;;
12832;SDS011;6483;51.310;4.462;2022-07-17T11:10:25;4.28;;;1.60;;
12832;SDS011;6483;51.310;4.462;2022-07-17T11:12:53;1.95;;;1.40;;
12832;SDS011;6483;51.310;4.462;2022-07-17T11:15:20;2.58;;;1.75;;
12832;SDS011;6483;51.310;4.462;2022-07-17T11:17:47;2.97;;;1.80;;
12832;SDS011;6483;51.310;4.462;2022-07-17T11:20:14;4.47;;;1.73;;
12832;SDS011;6483;51.310;4.462;2022-07-17T11:22:43;4.07;;;1.95;;
12832;SDS011;6483;51.310;4.462;2022-07-17T11:25:12;3.22;;;1.73;;
12832;SDS011;6483;51.310;4.462;2022-07-17T11:27:39;3.67;;;2.10;;
12832;SDS011;6483;51.310;4.462;2022-07-17T11:30:10;3.60;;;1.70;;
12832;SDS011;6483;51.310;4.462;2022-07-17T11:32:39;3.08;;;1.83;;
12832;SDS011;6483;51.310;4.462;2022-07-17T11:35:18;1.90;;;1.50;;
12832;SDS011;6483;51.310;4.462;2022-07-17T11:37:45;2.58;;;1.63;;
12832;SDS011;6483;51.310;4.462;2022-07-17T11:40:11;2.13;;;1.60;;
12832;SDS011;6483;51.310;4.462;2022-07-17T11:42:37;3.13;;;1.80;;
12832;SDS011;6483;51.310;4.462;2022-07-17T11:45:03;3.10;;;1.85;;
12832;SDS011;6483;51.310;4.462;2022-07-17T11:47:30;1.98;;;1.58;;
12832;SDS011;6483;51.310;4.462;2022-07-17T11:50:06;2.35;;;1.80;;
12832;SDS011;6483;51.310;4.462;2022-07-17T11:52:40;2.10;;;1.90;;
12832;SDS011;6483;51.310;4.462;2022-07-17T11:55:07;1.63;;;1.52;;
12832;SDS011;6483;51.310;4.462;2022-07-17T11:57:41;2.58;;;1.65;;
12832;SDS011;6483;51.310;4.462;2022-07-17T12:00:14;2.60;;;1.90;;
12832;SDS011;6483;51.310;4.462;2022-07-17T12:02:40;4.13;;;2.10;;
12832;SDS011;6483;51.310;4.462;2022-07-17T12:05:07;2.08;;;1.80;;
12832;SDS011;6483;51.310;4.462;2022-07-17T12:07:46;2.50;;;1.90;;
12832;SDS011;6483;51.310;4.462;2022-07-17T12:12:39;3.22;;;2.60;;
12832;SDS011;6483;51.310;4.462;2022-07-17T12:15:08;3.60;;;2.38;;
12832;SDS011;6483;51.310;4.462;2022-07-17T12:17:38;2.55;;;1.95;;
12832;SDS011;6483;51.310;4.462;2022-07-17T12:20:06;3.15;;;2.20;;
12832;SDS011;6483;51.310;4.462;2022-07-17T12:25:28;2.85;;;1.63;;
12832;SDS011;6483;51.310;4.462;2022-07-17T12:27:57;2.55;;;2.00;;
12832;SDS011;6483;51.310;4.462;2022-07-17T12:30:26;2.80;;;2.38;;
12832;SDS011;6483;51.310;4.462;2022-07-17T12:32:52;3.08;;;2.38;;
12832;SDS011;6483;51.310;4.462;2022-07-17T12:35:18;2.45;;;1.98;;
12832;SDS011;6483;51.310;4.462;2022-07-17T12:37:44;3.30;;;2.15;;
12832;SDS011;6483;51.310;4.462;2022-07-17T12:40:16;5.55;;;2.40;;
12832;SDS011;6483;51.310;4.462;2022-07-17T12:42:42;2.40;;;1.98;;
12832;SDS011;6483;51.310;4.462;2022-07-17T12:45:09;2.80;;;1.90;;
12832;SDS011;6483;51.310;4.462;2022-07-17T12:47:36;4.07;;;1.95;;
12832;SDS011;6483;51.310;4.462;2022-07-17T12:50:04;5.15;;;2.38;;
12832;SDS011;6483;51.310;4.462;2022-07-17T12:52:35;2.35;;;2.08;;
12832;SDS011;6483;51.310;4.462;2022-07-17T12:55:18;4.22;;;2.47;;
12832;SDS011;6483;51.310;4.462;2022-07-17T12:57:44;2.17;;;1.98;;
12832;SDS011;6483;51.310;4.462;2022-07-17T13:00:10;2.05;;;1.90;;
12832;SDS011;6483;51.310;4.462;2022-07-17T13:02:36;5.55;;;2.05;;
12832;SDS011;6483;51.310;4.462;2022-07-17T13:05:02;2.92;;;2.08;;
12832;SDS011;6483;51.310;4.462;2022-07-17T13:07:28;3.72;;;1.90;;
12832;SDS011;6483;51.310;4.462;2022-07-17T13:09:54;2.85;;;2.08;;
12832;SDS011;6483;51.310;4.462;2022-07-17T13:12:21;1.90;;;1.70;;
12832;SDS011;6483;51.310;4.462;2022-07-17T13:14:47;3.72;;;2.08;;
12832;SDS011;6483;51.310;4.462;2022-07-17T13:17:13;2.92;;;2.15;;
12832;SDS011;6483;51.310;4.462;2022-07-17T13:19:39;8.10;;;2.40;;
12832;SDS011;6483;51.310;4.462;2022-07-17T13:22:11;3.92;;;2.30;;
12832;SDS011;6483;51.310;4.462;2022-07-17T13:24:37;4.45;;;2.10;;
12832;SDS011;6483;51.310;4.462;2022-07-17T13:27:07;2.42;;;1.90;;
12832;SDS011;6483;51.310;4.462;2022-07-17T13:29:33;3.13;;;2.10;;
12832;SDS011;6483;51.310;4.462;2022-07-17T13:32:00;2.95;;;1.83;;
12832;SDS011;6483;51.310;4.462;2022-07-17T13:34:26;2.60;;;2.00;;
12832;SDS011;6483;51.310;4.462;2022-07-17T13:36:52;2.75;;;2.05;;
12832;SDS011;6483;51.310;4.462;2022-07-17T13:39:22;3.10;;;2.20;;
12832;SDS011;6483;51.310;4.462;2022-07-17T13:41:48;3.60;;;2.38;;
12832;SDS011;6483;51.310;4.462;2022-07-17T13:44:14;2.30;;;1.83;;
12832;SDS011;6483;51.310;4.462;2022-07-17T13:46:42;2.35;;;2.05;;
12832;SDS011;6483;51.310;4.462;2022-07-17T13:49:08;2.40;;;2.20;;
12832;SDS011;6483;51.310;4.462;2022-07-17T13:51:37;3.88;;;2.15;;
12832;SDS011;6483;51.310;4.462;2022-07-17T13:54:07;2.88;;;2.20;;
12832;SDS011;6483;51.310;4.462;2022-07-17T13:56:33;2.63;;;1.90;;
12832;SDS011;6483;51.310;4.462;2022-07-17T13:58:59;3.08;;;2.08;;
12832;SDS011;6483;51.310;4.462;2022-07-17T14:01:26;2.38;;;2.17;;
12832;SDS011;6483;51.310;4.462;2022-07-17T14:03:52;4.93;;;2.20;;
12832;SDS011;6483;51.310;4.462;2022-07-17T14:06:18;1.98;;;1.88;;
12832;SDS011;6483;51.310;4.462;2022-07-17T14:08:48;3.90;;;2.47;;
12832;SDS011;6483;51.310;4.462;2022-07-17T14:11:14;2.00;;;1.90;;
12832;SDS011;6483;51.310;4.462;2022-07-17T14:13:40;2.42;;;2.22;;
12832;SDS011;6483;51.310;4.462;2022-07-17T14:16:06;3.40;;;2.20;;
12832;SDS011;6483;51.310;4.462;2022-07-17T14:18:32;2.33;;;2.13;;
12832;SDS011;6483;51.310;4.462;2022-07-17T14:20:59;3.42;;;2.20;;
12832;SDS011;6483;51.310;4.462;2022-07-17T14:23:26;2.95;;;2.20;;
12832;SDS011;6483;51.310;4.462;2022-07-17T14:25:52;2.33;;;2.10;;
12832;SDS011;6483;51.310;4.462;2022-07-17T14:28:21;2.88;;;2.40;;
12832;SDS011;6483;51.310;4.462;2022-07-17T14:30:47;2.70;;;2.38;;
12832;SDS011;6483;51.310;4.462;2022-07-17T14:33:19;2.40;;;2.20;;
12832;SDS011;6483;51.310;4.462;2022-07-17T14:35:45;2.20;;;1.98;;
12832;SDS011;6483;51.310;4.462;2022-07-17T14:38:11;3.92;;;2.15;;
12832;SDS011;6483;51.310;4.462;2022-07-17T14:40:37;2.53;;;2.13;;
12832;SDS011;6483;51.310;4.462;2022-07-17T14:43:03;2.60;;;2.40;;
12832;SDS011;6483;51.310;4.462;2022-07-17T14:45:29;3.10;;;2.22;;
12832;SDS011;6483;51.310;4.462;2022-07-17T14:47:55;3.15;;;2.55;;
12832;SDS011;6483;51.310;4.462;2022-07-17T14:50:24;4.20;;;2.60;;
12832;SDS011;6483;51.310;4.462;2022-07-17T14:52:50;2.78;;;2.38;;
12832;SDS011;6483;51.310;4.462;2022-07-17T14:55:19;2.63;;;2.42;;
12832;SDS011;6483;51.310;4.462;2022-07-17T14:57:45;3.70;;;2.50;;
12832;SDS011;6483;51.310;4.462;2022-07-17T15:00:11;2.17;;;2.03;;
12832;SDS011;6483;51.310;4.462;2022-07-17T15:02:40;4.68;;;2.58;;
12832;SDS011;6483;51.310;4.462;2022-07-17T15:05:07;2.30;;;2.10;;
12832;SDS011;6483;51.310;4.462;2022-07-17T15:07:34;2.40;;;2.20;;
12832;SDS011;6483;51.310;4.462;2022-07-17T15:10:00;3.53;;;2.65;;
12832;SDS011;6483;51.310;4.462;2022-07-17T15:12:26;2.67;;;2.20;;
12832;SDS011;6483;51.310;4.462;2022-07-17T15:14:52;3.53;;;2.40;;
12832;SDS011;6483;51.310;4.462;2022-07-17T15:17:18;3.40;;;2.70;;
12832;SDS011;6483;51.310;4.462;2022-07-17T15:19:45;5.20;;;4.65;;